Startpagina
METAR-TAF:

METAR-TAF

Vliegvelden :

Ayacucho, Peru

breedte: 13-08S, lengte: 074-13W, hoogte: 2740 m

Actueel weer

Dit bericht is 26 minuten geleden gemaakt, om 16:00 UTC
Wind 5 kt uit het noordoosten
Temperatuur 17°C
Vochtigheid 63%
Druk 1030 hPa
Zicht 10 km of meer
Weinig wolken op 1000 ft
Gebroken wolken op 7000 ft

METAR: SPHO 281600Z 05005KT 9999 FEW010 BKN070 17/10 Q1030 RMK PP000

Tijdstip: 11:26 (16:26 UTC)

Verwachting

Dit bericht is 5 uur en het 26 minuten geleden gemaakt, om 11:00 UTC
Verwachting geldig van 28 om 12 UTC tot 29 om 12 UTC
Wind kt uit het noorden
Zicht: 1000 m
Verspreide wolken op 1000 ft
Gebroken wolken op 8000 ft
mist
Wijzigt naar
van 28 om 12 UTC tot 28 om 14 UTC
Zicht: 8000 m
Tijdelijke
van 28 om 20 UTC tot 28 om 23 UTC
Wind 10 kt uit het noordnoordoosten
Verspreide wolken op 4000 ft, Stapelwolken.
Gebroken wolken op 8000 ft

TAF: SPHO 281100Z 2812/2912 00000KT 1000 FG SCT010 BKN080 TX22/2819Z TN12/2911Z BECMG 2812/2814 8000 NSW TEMPO 2820/2823 02010KT SCT040TCU BKN080

Waarnemingen en weersverwachtingen van meer dan 4000 vliegvelden (METAR en TAF).

De beschikbare stations zijn de gele en rode punten op de kaart.

Ga met uw muis naar het station om de naam te zien.

Klik dan om waarnemingen en weersverwachtingen te zien.

kaart wijzigen: klik op de groene knoppen met een zwart kruis om in te zoomen, op de groene knop met een streepje om uit te zoomen of op de groene pijlen voor aangrenzende kaarten.


METAR-TAF: